sensor_id;sensor_type;location;lat;lon;timestamp;P1;durP1;ratioP1;P2;durP2;ratioP2
1649;SDS011;822;53.670;8.676;2023-05-07T00:00:08;6.50;;;5.30;;
1649;SDS011;822;53.670;8.676;2023-05-07T00:02:36;7.33;;;5.97;;
1649;SDS011;822;53.670;8.676;2023-05-07T00:05:03;6.87;;;6.10;;
1649;SDS011;822;53.670;8.676;2023-05-07T00:07:31;7.63;;;5.60;;
1649;SDS011;822;53.670;8.676;2023-05-07T00:09:58;8.07;;;5.30;;
1649;SDS011;822;53.670;8.676;2023-05-07T00:12:27;7.97;;;6.40;;
1649;SDS011;822;53.670;8.676;2023-05-07T00:14:56;6.40;;;5.80;;
1649;SDS011;822;53.670;8.676;2023-05-07T00:17:23;7.50;;;5.30;;
1649;SDS011;822;53.670;8.676;2023-05-07T00:19:50;6.17;;;5.40;;
1649;SDS011;822;53.670;8.676;2023-05-07T00:22:17;5.90;;;5.30;;
1649;SDS011;822;53.670;8.676;2023-05-07T00:24:45;7.30;;;5.63;;
1649;SDS011;822;53.670;8.676;2023-05-07T00:27:12;6.17;;;5.47;;
1649;SDS011;822;53.670;8.676;2023-05-07T00:29:40;7.03;;;5.80;;
1649;SDS011;822;53.670;8.676;2023-05-07T00:32:07;5.43;;;4.30;;
1649;SDS011;822;53.670;8.676;2023-05-07T00:34:35;5.00;;;4.37;;
1649;SDS011;822;53.670;8.676;2023-05-07T00:37:02;6.03;;;5.00;;
1649;SDS011;822;53.670;8.676;2023-05-07T00:39:29;6.10;;;4.30;;
1649;SDS011;822;53.670;8.676;2023-05-07T00:41:56;5.10;;;4.60;;
1649;SDS011;822;53.670;8.676;2023-05-07T00:44:23;6.33;;;5.70;;
1649;SDS011;822;53.670;8.676;2023-05-07T00:46:52;5.63;;;4.60;;
1649;SDS011;822;53.670;8.676;2023-05-07T00:49:20;6.50;;;5.83;;
1649;SDS011;822;53.670;8.676;2023-05-07T00:51:47;4.87;;;4.43;;
1649;SDS011;822;53.670;8.676;2023-05-07T00:54:16;5.00;;;4.27;;
1649;SDS011;822;53.670;8.676;2023-05-07T00:56:43;7.57;;;5.50;;
1649;SDS011;822;53.670;8.676;2023-05-07T00:59:11;6.10;;;5.50;;
1649;SDS011;822;53.670;8.676;2023-05-07T01:01:38;6.90;;;5.83;;
1649;SDS011;822;53.670;8.676;2023-05-07T01:04:06;6.80;;;6.10;;
1649;SDS011;822;53.670;8.676;2023-05-07T01:06:33;6.30;;;4.97;;
1649;SDS011;822;53.670;8.676;2023-05-07T01:09:01;6.10;;;5.50;;
1649;SDS011;822;53.670;8.676;2023-05-07T01:11:29;5.43;;;4.93;;
1649;SDS011;822;53.670;8.676;2023-05-07T01:13:57;8.53;;;4.97;;
1649;SDS011;822;53.670;8.676;2023-05-07T01:16:25;6.27;;;5.33;;
1649;SDS011;822;53.670;8.676;2023-05-07T01:18:53;5.50;;;4.90;;
1649;SDS011;822;53.670;8.676;2023-05-07T01:21:22;6.63;;;5.23;;
1649;SDS011;822;53.670;8.676;2023-05-07T01:23:54;5.30;;;4.53;;
1649;SDS011;822;53.670;8.676;2023-05-07T01:26:22;6.80;;;6.10;;
1649;SDS011;822;53.670;8.676;2023-05-07T01:28:49;6.90;;;5.90;;
1649;SDS011;822;53.670;8.676;2023-05-07T01:31:16;5.37;;;4.90;;
1649;SDS011;822;53.670;8.676;2023-05-07T01:33:44;5.67;;;4.20;;
1649;SDS011;822;53.670;8.676;2023-05-07T01:36:14;5.23;;;4.73;;
1649;SDS011;822;53.670;8.676;2023-05-07T01:38:43;5.30;;;4.77;;
1649;SDS011;822;53.670;8.676;2023-05-07T01:41:12;6.53;;;5.33;;
1649;SDS011;822;53.670;8.676;2023-05-07T01:43:40;9.23;;;4.27;;
1649;SDS011;822;53.670;8.676;2023-05-07T01:46:08;5.33;;;4.57;;
1649;SDS011;822;53.670;8.676;2023-05-07T01:48:37;5.93;;;4.67;;
1649;SDS011;822;53.670;8.676;2023-05-07T01:51:05;6.87;;;5.53;;
1649;SDS011;822;53.670;8.676;2023-05-07T01:53:35;7.37;;;5.40;;
1649;SDS011;822;53.670;8.676;2023-05-07T01:56:03;7.57;;;5.90;;
1649;SDS011;822;53.670;8.676;2023-05-07T01:58:31;6.13;;;4.60;;
1649;SDS011;822;53.670;8.676;2023-05-07T02:00:59;5.80;;;4.30;;
1649;SDS011;822;53.670;8.676;2023-05-07T02:03:26;7.60;;;6.03;;
1649;SDS011;822;53.670;8.676;2023-05-07T02:05:53;4.97;;;4.47;;
1649;SDS011;822;53.670;8.676;2023-05-07T02:08:20;4.90;;;4.50;;
1649;SDS011;822;53.670;8.676;2023-05-07T02:10:47;5.87;;;5.27;;
1649;SDS011;822;53.670;8.676;2023-05-07T02:13:15;7.13;;;6.23;;
1649;SDS011;822;53.670;8.676;2023-05-07T02:15:43;6.80;;;5.30;;
1649;SDS011;822;53.670;8.676;2023-05-07T02:18:15;6.93;;;5.17;;
1649;SDS011;822;53.670;8.676;2023-05-07T02:20:43;7.60;;;5.97;;
1649;SDS011;822;53.670;8.676;2023-05-07T02:23:10;5.90;;;4.53;;
1649;SDS011;822;53.670;8.676;2023-05-07T02:25:37;12.90;;;5.90;;
1649;SDS011;822;53.670;8.676;2023-05-07T02:28:04;7.40;;;5.50;;
1649;SDS011;822;53.670;8.676;2023-05-07T02:30:32;7.10;;;5.37;;
1649;SDS011;822;53.670;8.676;2023-05-07T02:33:00;7.20;;;5.67;;
1649;SDS011;822;53.670;8.676;2023-05-07T02:35:27;6.30;;;4.97;;
1649;SDS011;822;53.670;8.676;2023-05-07T02:37:54;6.43;;;5.17;;
1649;SDS011;822;53.670;8.676;2023-05-07T02:40:22;7.43;;;5.33;;
1649;SDS011;822;53.670;8.676;2023-05-07T02:42:49;8.17;;;6.43;;
1649;SDS011;822;53.670;8.676;2023-05-07T02:45:16;5.80;;;4.97;;
1649;SDS011;822;53.670;8.676;2023-05-07T02:47:44;6.50;;;4.90;;
1649;SDS011;822;53.670;8.676;2023-05-07T02:50:16;6.30;;;4.87;;
1649;SDS011;822;53.670;8.676;2023-05-07T02:52:43;6.90;;;4.93;;
1649;SDS011;822;53.670;8.676;2023-05-07T02:55:10;6.00;;;5.30;;
1649;SDS011;822;53.670;8.676;2023-05-07T02:57:37;7.43;;;4.97;;
1649;SDS011;822;53.670;8.676;2023-05-07T03:00:11;6.50;;;5.77;;
1649;SDS011;822;53.670;8.676;2023-05-07T03:02:40;6.67;;;5.70;;
1649;SDS011;822;53.670;8.676;2023-05-07T03:05:07;5.60;;;4.47;;
1649;SDS011;822;53.670;8.676;2023-05-07T03:07:39;8.43;;;6.30;;
1649;SDS011;822;53.670;8.676;2023-05-07T03:10:10;5.43;;;4.67;;
1649;SDS011;822;53.670;8.676;2023-05-07T03:12:37;6.60;;;6.00;;
1649;SDS011;822;53.670;8.676;2023-05-07T03:15:05;8.00;;;5.30;;
1649;SDS011;822;53.670;8.676;2023-05-07T03:17:34;6.57;;;4.63;;
1649;SDS011;822;53.670;8.676;2023-05-07T03:20:01;5.37;;;4.67;;
1649;SDS011;822;53.670;8.676;2023-05-07T03:22:29;6.37;;;5.00;;
1649;SDS011;822;53.670;8.676;2023-05-07T03:24:57;4.80;;;4.40;;
1649;SDS011;822;53.670;8.676;2023-05-07T03:27:24;6.17;;;4.57;;
1649;SDS011;822;53.670;8.676;2023-05-07T03:29:51;6.37;;;5.20;;
1649;SDS011;822;53.670;8.676;2023-05-07T03:32:19;4.43;;;3.90;;
1649;SDS011;822;53.670;8.676;2023-05-07T03:34:46;4.80;;;4.07;;
1649;SDS011;822;53.670;8.676;2023-05-07T03:37:13;4.10;;;3.60;;
1649;SDS011;822;53.670;8.676;2023-05-07T03:39:40;5.70;;;5.00;;
1649;SDS011;822;53.670;8.676;2023-05-07T03:42:09;4.80;;;3.87;;
1649;SDS011;822;53.670;8.676;2023-05-07T03:44:36;6.10;;;3.93;;
1649;SDS011;822;53.670;8.676;2023-05-07T03:47:03;5.70;;;5.13;;
1649;SDS011;822;53.670;8.676;2023-05-07T03:49:31;5.00;;;4.50;;
1649;SDS011;822;53.670;8.676;2023-05-07T03:51:58;4.83;;;4.07;;
1649;SDS011;822;53.670;8.676;2023-05-07T03:54:25;5.80;;;3.97;;
1649;SDS011;822;53.670;8.676;2023-05-07T03:56:52;6.17;;;4.47;;
1649;SDS011;822;53.670;8.676;2023-05-07T03:59:21;5.07;;;4.57;;
1649;SDS011;822;53.670;8.676;2023-05-07T04:01:48;6.13;;;4.83;;
1649;SDS011;822;53.670;8.676;2023-05-07T04:04:15;4.97;;;4.17;;
1649;SDS011;822;53.670;8.676;2023-05-07T04:06:42;3.93;;;3.53;;
1649;SDS011;822;53.670;8.676;2023-05-07T04:09:16;4.90;;;4.50;;
1649;SDS011;822;53.670;8.676;2023-05-07T04:11:43;5.23;;;4.27;;
1649;SDS011;822;53.670;8.676;2023-05-07T04:14:10;6.33;;;4.67;;
1649;SDS011;822;53.670;8.676;2023-05-07T04:16:40;4.10;;;3.43;;
1649;SDS011;822;53.670;8.676;2023-05-07T04:19:07;5.40;;;4.50;;
1649;SDS011;822;53.670;8.676;2023-05-07T04:21:34;4.30;;;3.90;;
1649;SDS011;822;53.670;8.676;2023-05-07T04:24:02;5.73;;;5.10;;
1649;SDS011;822;53.670;8.676;2023-05-07T04:26:33;4.00;;;3.60;;
1649;SDS011;822;53.670;8.676;2023-05-07T04:29:00;6.83;;;4.90;;
1649;SDS011;822;53.670;8.676;2023-05-07T04:31:27;4.97;;;4.43;;
1649;SDS011;822;53.670;8.676;2023-05-07T04:33:57;3.87;;;3.57;;
1649;SDS011;822;53.670;8.676;2023-05-07T04:36:24;4.03;;;3.63;;
1649;SDS011;822;53.670;8.676;2023-05-07T04:38:52;6.33;;;4.80;;
1649;SDS011;822;53.670;8.676;2023-05-07T04:41:19;4.80;;;4.27;;
1649;SDS011;822;53.670;8.676;2023-05-07T04:43:47;4.00;;;3.27;;
1649;SDS011;822;53.670;8.676;2023-05-07T04:46:14;4.00;;;3.60;;
1649;SDS011;822;53.670;8.676;2023-05-07T04:48:41;5.17;;;4.67;;
1649;SDS011;822;53.670;8.676;2023-05-07T04:51:09;4.73;;;4.27;;
1649;SDS011;822;53.670;8.676;2023-05-07T04:53:37;4.90;;;3.77;;
1649;SDS011;822;53.670;8.676;2023-05-07T04:56:04;4.87;;;4.47;;
1649;SDS011;822;53.670;8.676;2023-05-07T04:58:31;6.40;;;5.23;;
1649;SDS011;822;53.670;8.676;2023-05-07T05:00:58;4.50;;;4.07;;
1649;SDS011;822;53.670;8.676;2023-05-07T05:03:26;5.17;;;3.40;;
1649;SDS011;822;53.670;8.676;2023-05-07T05:05:56;4.77;;;3.83;;
1649;SDS011;822;53.670;8.676;2023-05-07T05:08:26;5.03;;;3.87;;
1649;SDS011;822;53.670;8.676;2023-05-07T05:10:53;5.90;;;4.10;;
1649;SDS011;822;53.670;8.676;2023-05-07T05:13:20;4.60;;;4.20;;
1649;SDS011;822;53.670;8.676;2023-05-07T05:15:47;6.40;;;5.03;;
1649;SDS011;822;53.670;8.676;2023-05-07T05:18:14;5.90;;;4.00;;
1649;SDS011;822;53.670;8.676;2023-05-07T05:20:41;4.27;;;3.87;;
1649;SDS011;822;53.670;8.676;2023-05-07T05:23:08;3.67;;;3.37;;
1649;SDS011;822;53.670;8.676;2023-05-07T05:25:37;4.60;;;3.77;;
1649;SDS011;822;53.670;8.676;2023-05-07T05:28:05;5.03;;;4.57;;
1649;SDS011;822;53.670;8.676;2023-05-07T05:30:32;4.10;;;3.70;;
1649;SDS011;822;53.670;8.676;2023-05-07T05:33:00;5.97;;;5.03;;
1649;SDS011;822;53.670;8.676;2023-05-07T05:35:27;5.07;;;4.00;;
1649;SDS011;822;53.670;8.676;2023-05-07T05:37:55;4.20;;;3.80;;
1649;SDS011;822;53.670;8.676;2023-05-07T05:40:23;5.13;;;4.27;;
1649;SDS011;822;53.670;8.676;2023-05-07T05:42:51;4.87;;;3.93;;
1649;SDS011;822;53.670;8.676;2023-05-07T05:45:19;5.23;;;4.33;;
1649;SDS011;822;53.670;8.676;2023-05-07T05:47:46;6.00;;;4.57;;
1649;SDS011;822;53.670;8.676;2023-05-07T05:50:14;3.77;;;3.40;;
1649;SDS011;822;53.670;8.676;2023-05-07T05:52:41;8.70;;;4.70;;
1649;SDS011;822;53.670;8.676;2023-05-07T05:55:08;5.60;;;4.10;;
1649;SDS011;822;53.670;8.676;2023-05-07T05:57:37;5.10;;;4.40;;
1649;SDS011;822;53.670;8.676;2023-05-07T06:00:07;5.17;;;3.97;;
1649;SDS011;822;53.670;8.676;2023-05-07T06:02:36;5.33;;;4.83;;
1649;SDS011;822;53.670;8.676;2023-05-07T06:05:04;5.10;;;3.80;;
1649;SDS011;822;53.670;8.676;2023-05-07T06:07:32;4.90;;;4.23;;
1649;SDS011;822;53.670;8.676;2023-05-07T06:09:59;4.70;;;4.20;;
1649;SDS011;822;53.670;8.676;2023-05-07T06:12:27;6.10;;;3.47;;
1649;SDS011;822;53.670;8.676;2023-05-07T06:14:56;5.60;;;4.77;;
1649;SDS011;822;53.670;8.676;2023-05-07T06:17:24;6.37;;;4.87;;
1649;SDS011;822;53.670;8.676;2023-05-07T06:19:52;6.00;;;4.93;;
1649;SDS011;822;53.670;8.676;2023-05-07T06:22:19;4.90;;;3.90;;
1649;SDS011;822;53.670;8.676;2023-05-07T06:24:46;5.97;;;5.37;;
1649;SDS011;822;53.670;8.676;2023-05-07T06:27:14;5.33;;;3.90;;
1649;SDS011;822;53.670;8.676;2023-05-07T06:29:41;4.23;;;3.83;;
1649;SDS011;822;53.670;8.676;2023-05-07T06:32:12;4.07;;;3.50;;
1649;SDS011;822;53.670;8.676;2023-05-07T06:34:41;5.53;;;4.50;;
1649;SDS011;822;53.670;8.676;2023-05-07T06:37:08;7.87;;;6.40;;
1649;SDS011;822;53.670;8.676;2023-05-07T06:39:35;4.00;;;3.60;;
1649;SDS011;822;53.670;8.676;2023-05-07T06:42:02;4.13;;;3.60;;
1649;SDS011;822;53.670;8.676;2023-05-07T06:44:30;6.37;;;4.30;;
1649;SDS011;822;53.670;8.676;2023-05-07T06:46:57;4.90;;;3.77;;
1649;SDS011;822;53.670;8.676;2023-05-07T06:49:24;4.80;;;4.30;;
1649;SDS011;822;53.670;8.676;2023-05-07T06:51:54;5.53;;;5.03;;
1649;SDS011;822;53.670;8.676;2023-05-07T06:54:22;4.57;;;3.33;;
1649;SDS011;822;53.670;8.676;2023-05-07T06:56:49;4.43;;;4.00;;
1649;SDS011;822;53.670;8.676;2023-05-07T06:59:16;7.87;;;5.40;;
1649;SDS011;822;53.670;8.676;2023-05-07T07:01:44;5.87;;;4.20;;
1649;SDS011;822;53.670;8.676;2023-05-07T07:04:11;4.37;;;3.97;;
1649;SDS011;822;53.670;8.676;2023-05-07T07:06:38;5.20;;;4.20;;
1649;SDS011;822;53.670;8.676;2023-05-07T07:09:06;4.03;;;3.63;;
1649;SDS011;822;53.670;8.676;2023-05-07T07:11:34;5.50;;;4.67;;
1649;SDS011;822;53.670;8.676;2023-05-07T07:14:04;3.27;;;2.97;;
1649;SDS011;822;53.670;8.676;2023-05-07T07:16:32;4.00;;;3.70;;
1649;SDS011;822;53.670;8.676;2023-05-07T07:19:02;5.50;;;4.47;;
1649;SDS011;822;53.670;8.676;2023-05-07T07:21:29;5.47;;;4.97;;
1649;SDS011;822;53.670;8.676;2023-05-07T07:23:57;4.53;;;3.70;;
1649;SDS011;822;53.670;8.676;2023-05-07T07:26:25;6.27;;;4.97;;
1649;SDS011;822;53.670;8.676;2023-05-07T07:28:52;6.50;;;4.70;;
1649;SDS011;822;53.670;8.676;2023-05-07T07:31:19;4.40;;;4.00;;
1649;SDS011;822;53.670;8.676;2023-05-07T07:33:46;4.63;;;3.40;;
1649;SDS011;822;53.670;8.676;2023-05-07T07:36:15;5.33;;;4.83;;
1649;SDS011;822;53.670;8.676;2023-05-07T07:38:42;4.27;;;3.80;;
1649;SDS011;822;53.670;8.676;2023-05-07T07:41:12;6.17;;;5.20;;
1649;SDS011;822;53.670;8.676;2023-05-07T07:43:41;5.00;;;4.50;;
1649;SDS011;822;53.670;8.676;2023-05-07T07:46:08;4.93;;;4.53;;
1649;SDS011;822;53.670;8.676;2023-05-07T07:48:35;5.00;;;4.07;;
1649;SDS011;822;53.670;8.676;2023-05-07T07:51:03;4.97;;;4.47;;
1649;SDS011;822;53.670;8.676;2023-05-07T07:53:30;3.97;;;3.67;;
1649;SDS011;822;53.670;8.676;2023-05-07T07:55:59;5.20;;;4.70;;
1649;SDS011;822;53.670;8.676;2023-05-07T07:58:26;4.20;;;3.00;;
1649;SDS011;822;53.670;8.676;2023-05-07T08:00:54;4.43;;;4.03;;
1649;SDS011;822;53.670;8.676;2023-05-07T08:03:23;5.33;;;4.37;;
1649;SDS011;822;53.670;8.676;2023-05-07T08:05:50;4.93;;;4.43;;
1649;SDS011;822;53.670;8.676;2023-05-07T08:08:17;4.60;;;3.83;;
1649;SDS011;822;53.670;8.676;2023-05-07T08:10:46;5.17;;;3.90;;
1649;SDS011;822;53.670;8.676;2023-05-07T08:13:15;4.90;;;3.97;;
1649;SDS011;822;53.670;8.676;2023-05-07T08:15:42;3.37;;;3.07;;
1649;SDS011;822;53.670;8.676;2023-05-07T08:18:11;5.07;;;4.20;;
1649;SDS011;822;53.670;8.676;2023-05-07T08:20:38;3.53;;;3.23;;
1649;SDS011;822;53.670;8.676;2023-05-07T08:23:06;4.23;;;3.83;;
1649;SDS011;822;53.670;8.676;2023-05-07T08:25:33;4.00;;;3.60;;
1649;SDS011;822;53.670;8.676;2023-05-07T08:28:00;4.97;;;4.57;;
1649;SDS011;822;53.670;8.676;2023-05-07T08:30:28;3.67;;;3.37;;
1649;SDS011;822;53.670;8.676;2023-05-07T08:32:55;4.33;;;3.23;;
1649;SDS011;822;53.670;8.676;2023-05-07T08:35:24;4.50;;;4.00;;
1649;SDS011;822;53.670;8.676;2023-05-07T08:37:52;4.17;;;3.87;;
1649;SDS011;822;53.670;8.676;2023-05-07T08:40:28;3.83;;;3.40;;
1649;SDS011;822;53.670;8.676;2023-05-07T08:42:55;4.10;;;3.70;;
1649;SDS011;822;53.670;8.676;2023-05-07T08:45:23;4.60;;;4.00;;
1649;SDS011;822;53.670;8.676;2023-05-07T08:47:54;3.67;;;3.30;;
1649;SDS011;822;53.670;8.676;2023-05-07T08:50:27;3.70;;;3.40;;
1649;SDS011;822;53.670;8.676;2023-05-07T08:52:54;3.80;;;3.50;;
1649;SDS011;822;53.670;8.676;2023-05-07T08:55:26;3.87;;;3.57;;
1649;SDS011;822;53.670;8.676;2023-05-07T08:57:55;5.90;;;5.10;;
1649;SDS011;822;53.670;8.676;2023-05-07T09:00:22;5.33;;;4.67;;
1649;SDS011;822;53.670;8.676;2023-05-07T09:02:49;3.33;;;3.03;;
1649;SDS011;822;53.670;8.676;2023-05-07T09:05:17;4.67;;;4.27;;
1649;SDS011;822;53.670;8.676;2023-05-07T09:07:46;5.90;;;4.83;;
1649;SDS011;822;53.670;8.676;2023-05-07T09:10:14;4.27;;;3.87;;
1649;SDS011;822;53.670;8.676;2023-05-07T09:12:41;3.37;;;3.07;;
1649;SDS011;822;53.670;8.676;2023-05-07T09:15:09;3.97;;;3.40;;
1649;SDS011;822;53.670;8.676;2023-05-07T09:17:37;3.77;;;3.47;;
1649;SDS011;822;53.670;8.676;2023-05-07T09:20:07;4.00;;;3.13;;
1649;SDS011;822;53.670;8.676;2023-05-07T09:22:36;4.13;;;3.73;;
1649;SDS011;822;53.670;8.676;2023-05-07T09:25:05;4.07;;;3.53;;
1649;SDS011;822;53.670;8.676;2023-05-07T09:27:34;4.37;;;3.30;;
1649;SDS011;822;53.670;8.676;2023-05-07T09:30:03;3.40;;;3.10;;
1649;SDS011;822;53.670;8.676;2023-05-07T09:32:34;3.90;;;3.60;;
1649;SDS011;822;53.670;8.676;2023-05-07T09:35:03;4.83;;;4.43;;
1649;SDS011;822;53.670;8.676;2023-05-07T09:37:32;3.87;;;3.43;;
1649;SDS011;822;53.670;8.676;2023-05-07T09:39:59;4.30;;;3.90;;
1649;SDS011;822;53.670;8.676;2023-05-07T09:42:28;3.97;;;3.60;;
1649;SDS011;822;53.670;8.676;2023-05-07T09:44:55;4.20;;;3.87;;
1649;SDS011;822;53.670;8.676;2023-05-07T09:47:25;3.43;;;3.07;;
1649;SDS011;822;53.670;8.676;2023-05-07T09:50:17;3.87;;;3.53;;
1649;SDS011;822;53.670;8.676;2023-05-07T09:53:03;5.60;;;3.90;;
1649;SDS011;822;53.670;8.676;2023-05-07T09:55:30;3.47;;;3.17;;
1649;SDS011;822;53.670;8.676;2023-05-07T09:57:59;2.20;;;2.03;;
1649;SDS011;822;53.670;8.676;2023-05-07T10:00:27;3.60;;;3.30;;
1649;SDS011;822;53.670;8.676;2023-05-07T10:02:56;3.57;;;3.23;;
1649;SDS011;822;53.670;8.676;2023-05-07T10:05:24;3.07;;;2.87;;
1649;SDS011;822;53.670;8.676;2023-05-07T10:07:52;3.30;;;3.00;;
1649;SDS011;822;53.670;8.676;2023-05-07T10:10:20;2.90;;;2.47;;
1649;SDS011;822;53.670;8.676;2023-05-07T10:12:48;2.90;;;2.67;;
1649;SDS011;822;53.670;8.676;2023-05-07T10:15:18;3.73;;;3.43;;
1649;SDS011;822;53.670;8.676;2023-05-07T10:17:45;3.60;;;3.30;;
1649;SDS011;822;53.670;8.676;2023-05-07T10:20:14;3.00;;;2.80;;
1649;SDS011;822;53.670;8.676;2023-05-07T10:22:43;3.60;;;3.30;;
1649;SDS011;822;53.670;8.676;2023-05-07T10:25:14;2.80;;;2.60;;
1649;SDS011;822;53.670;8.676;2023-05-07T10:27:45;3.87;;;3.40;;
1649;SDS011;822;53.670;8.676;2023-05-07T10:30:15;3.63;;;3.37;;
1649;SDS011;822;53.670;8.676;2023-05-07T10:32:59;3.70;;;3.40;;
1649;SDS011;822;53.670;8.676;2023-05-07T10:35:36;3.10;;;2.90;;
1649;SDS011;822;53.670;8.676;2023-05-07T10:38:06;3.93;;;3.53;;
1649;SDS011;822;53.670;8.676;2023-05-07T10:40:33;3.47;;;3.17;;
1649;SDS011;822;53.670;8.676;2023-05-07T10:43:02;3.57;;;3.30;;
1649;SDS011;822;53.670;8.676;2023-05-07T10:45:31;3.23;;;3.00;;
1649;SDS011;822;53.670;8.676;2023-05-07T10:48:09;3.00;;;2.57;;
1649;SDS011;822;53.670;8.676;2023-05-07T10:50:38;3.13;;;2.93;;
1649;SDS011;822;53.670;8.676;2023-05-07T10:53:22;3.03;;;2.77;;
1649;SDS011;822;53.670;8.676;2023-05-07T10:58:53;3.00;;;2.80;;
1649;SDS011;822;53.670;8.676;2023-05-07T11:04:19;3.37;;;3.17;;
1649;SDS011;822;53.670;8.676;2023-05-07T11:10:03;2.67;;;2.47;;
1649;SDS011;822;53.670;8.676;2023-05-07T11:12:47;2.97;;;2.73;;
1649;SDS011;822;53.670;8.676;2023-05-07T11:15:31;3.80;;;2.77;;
1649;SDS011;822;53.670;8.676;2023-05-07T11:18:05;2.10;;;1.90;;
1649;SDS011;822;53.670;8.676;2023-05-07T11:20:46;3.20;;;2.90;;
1649;SDS011;822;53.670;8.676;2023-05-07T11:26:44;3.07;;;2.87;;
1649;SDS011;822;53.670;8.676;2023-05-07T11:29:13;3.60;;;3.30;;
1649;SDS011;822;53.670;8.676;2023-05-07T11:31:41;2.70;;;2.50;;
1649;SDS011;822;53.670;8.676;2023-05-07T11:34:10;3.33;;;2.90;;
1649;SDS011;822;53.670;8.676;2023-05-07T11:36:41;2.77;;;2.57;;
1649;SDS011;822;53.670;8.676;2023-05-07T11:39:29;2.80;;;2.60;;
1649;SDS011;822;53.670;8.676;2023-05-07T11:41:58;3.90;;;3.50;;
1649;SDS011;822;53.670;8.676;2023-05-07T11:44:39;2.93;;;2.73;;
1649;SDS011;822;53.670;8.676;2023-05-07T11:47:11;2.67;;;2.47;;
1649;SDS011;822;53.670;8.676;2023-05-07T11:49:44;3.23;;;3.00;;
1649;SDS011;822;53.670;8.676;2023-05-07T11:52:19;2.90;;;2.70;;
1649;SDS011;822;53.670;8.676;2023-05-07T11:54:50;2.50;;;2.30;;
1649;SDS011;822;53.670;8.676;2023-05-07T11:57:18;2.80;;;2.60;;
1649;SDS011;822;53.670;8.676;2023-05-07T11:59:52;3.73;;;2.63;;
1649;SDS011;822;53.670;8.676;2023-05-07T12:02:19;2.27;;;2.13;;
1649;SDS011;822;53.670;8.676;2023-05-07T12:04:48;2.87;;;2.67;;
1649;SDS011;822;53.670;8.676;2023-05-07T12:07:15;2.97;;;2.77;;
1649;SDS011;822;53.670;8.676;2023-05-07T12:09:43;2.77;;;2.57;;
1649;SDS011;822;53.670;8.676;2023-05-07T12:12:12;3.50;;;3.20;;
1649;SDS011;822;53.670;8.676;2023-05-07T12:14:40;3.10;;;2.87;;
1649;SDS011;822;53.670;8.676;2023-05-07T12:17:08;2.97;;;2.77;;
1649;SDS011;822;53.670;8.676;2023-05-07T12:19:37;3.50;;;3.17;;
1649;SDS011;822;53.670;8.676;2023-05-07T12:22:06;2.93;;;2.73;;
1649;SDS011;822;53.670;8.676;2023-05-07T12:24:44;2.40;;;2.20;;
1649;SDS011;822;53.670;8.676;2023-05-07T12:27:12;2.73;;;2.60;;
1649;SDS011;822;53.670;8.676;2023-05-07T12:29:40;2.80;;;2.60;;
1649;SDS011;822;53.670;8.676;2023-05-07T12:32:12;2.70;;;2.50;;
1649;SDS011;822;53.670;8.676;2023-05-07T12:34:41;2.70;;;2.50;;
1649;SDS011;822;53.670;8.676;2023-05-07T12:37:10;3.50;;;2.47;;
1649;SDS011;822;53.670;8.676;2023-05-07T12:39:38;2.97;;;2.77;;
1649;SDS011;822;53.670;8.676;2023-05-07T12:42:10;2.17;;;2.07;;
1649;SDS011;822;53.670;8.676;2023-05-07T12:44:44;2.60;;;2.40;;
1649;SDS011;822;53.670;8.676;2023-05-07T12:47:12;2.23;;;2.03;;
1649;SDS011;822;53.670;8.676;2023-05-07T12:49:41;3.13;;;2.83;;
1649;SDS011;822;53.670;8.676;2023-05-07T12:52:09;2.17;;;2.00;;
1649;SDS011;822;53.670;8.676;2023-05-07T12:54:38;2.63;;;2.43;;
1649;SDS011;822;53.670;8.676;2023-05-07T12:57:06;3.03;;;2.83;;
1649;SDS011;822;53.670;8.676;2023-05-07T12:59:34;3.23;;;3.03;;
1649;SDS011;822;53.670;8.676;2023-05-07T13:02:02;2.43;;;2.30;;
1649;SDS011;822;53.670;8.676;2023-05-07T13:04:30;3.27;;;2.97;;
1649;SDS011;822;53.670;8.676;2023-05-07T13:06:57;3.10;;;2.80;;
1649;SDS011;822;53.670;8.676;2023-05-07T13:09:27;3.20;;;2.93;;
1649;SDS011;822;53.670;8.676;2023-05-07T13:11:55;3.07;;;2.87;;
1649;SDS011;822;53.670;8.676;2023-05-07T13:14:25;3.40;;;3.20;;
1649;SDS011;822;53.670;8.676;2023-05-07T13:16:52;2.40;;;2.20;;
1649;SDS011;822;53.670;8.676;2023-05-07T13:19:19;2.70;;;2.50;;
1649;SDS011;822;53.670;8.676;2023-05-07T13:21:46;2.60;;;2.40;;
1649;SDS011;822;53.670;8.676;2023-05-07T13:24:14;3.13;;;2.70;;
1649;SDS011;822;53.670;8.676;2023-05-07T13:26:44;3.13;;;2.93;;
1649;SDS011;822;53.670;8.676;2023-05-07T13:29:11;2.57;;;2.37;;
1649;SDS011;822;53.670;8.676;2023-05-07T13:31:38;2.70;;;2.50;;
1649;SDS011;822;53.670;8.676;2023-05-07T13:34:09;3.33;;;3.10;;
1649;SDS011;822;53.670;8.676;2023-05-07T13:36:36;2.83;;;2.50;;
1649;SDS011;822;53.670;8.676;2023-05-07T13:39:04;2.60;;;2.40;;
1649;SDS011;822;53.670;8.676;2023-05-07T13:41:33;3.30;;;3.10;;
1649;SDS011;822;53.670;8.676;2023-05-07T13:44:02;4.83;;;4.27;;
1649;SDS011;822;53.670;8.676;2023-05-07T13:46:29;3.97;;;3.60;;
1649;SDS011;822;53.670;8.676;2023-05-07T13:48:56;4.77;;;4.37;;
1649;SDS011;822;53.670;8.676;2023-05-07T13:51:23;3.17;;;2.97;;
1649;SDS011;822;53.670;8.676;2023-05-07T13:53:50;2.67;;;2.47;;
1649;SDS011;822;53.670;8.676;2023-05-07T13:56:19;2.97;;;2.77;;
1649;SDS011;822;53.670;8.676;2023-05-07T13:58:46;3.20;;;2.90;;
1649;SDS011;822;53.670;8.676;2023-05-07T14:01:14;2.83;;;2.63;;
1649;SDS011;822;53.670;8.676;2023-05-07T14:03:42;3.03;;;2.83;;
1649;SDS011;822;53.670;8.676;2023-05-07T14:06:09;2.90;;;2.70;;
1649;SDS011;822;53.670;8.676;2023-05-07T14:08:36;3.00;;;2.80;;
1649;SDS011;822;53.670;8.676;2023-05-07T14:11:03;2.90;;;2.70;;
1649;SDS011;822;53.670;8.676;2023-05-07T14:13:31;2.93;;;2.73;;
1649;SDS011;822;53.670;8.676;2023-05-07T14:15:59;3.00;;;2.80;;
1649;SDS011;822;53.670;8.676;2023-05-07T14:18:27;2.67;;;2.13;;
1649;SDS011;822;53.670;8.676;2023-05-07T14:20:55;3.13;;;2.93;;
1649;SDS011;822;53.670;8.676;2023-05-07T14:23:22;3.40;;;3.10;;
1649;SDS011;822;53.670;8.676;2023-05-07T14:25:51;2.40;;;2.20;;
1649;SDS011;822;53.670;8.676;2023-05-07T14:28:18;2.60;;;2.40;;
1649;SDS011;822;53.670;8.676;2023-05-07T14:30:46;3.50;;;2.77;;
1649;SDS011;822;53.670;8.676;2023-05-07T14:33:13;4.10;;;2.73;;
1649;SDS011;822;53.670;8.676;2023-05-07T14:35:42;2.83;;;2.63;;
1649;SDS011;822;53.670;8.676;2023-05-07T14:38:13;2.70;;;2.60;;
1649;SDS011;822;53.670;8.676;2023-05-07T14:40:40;2.63;;;2.43;;
1649;SDS011;822;53.670;8.676;2023-05-07T14:43:07;2.80;;;2.60;;
1649;SDS011;822;53.670;8.676;2023-05-07T14:45:34;2.90;;;2.70;;
1649;SDS011;822;53.670;8.676;2023-05-07T14:48:01;2.33;;;2.13;;
1649;SDS011;822;53.670;8.676;2023-05-07T14:50:29;2.70;;;2.37;;
1649;SDS011;822;53.670;8.676;2023-05-07T14:52:57;2.23;;;2.03;;
1649;SDS011;822;53.670;8.676;2023-05-07T14:55:24;2.37;;;2.17;;
1649;SDS011;822;53.670;8.676;2023-05-07T14:57:51;2.40;;;2.20;;
1649;SDS011;822;53.670;8.676;2023-05-07T15:00:19;3.50;;;3.20;;
1649;SDS011;822;53.670;8.676;2023-05-07T15:02:46;2.10;;;2.00;;
1649;SDS011;822;53.670;8.676;2023-05-07T15:05:13;3.50;;;3.20;;
1649;SDS011;822;53.670;8.676;2023-05-07T15:07:41;1.90;;;1.80;;
1649;SDS011;822;53.670;8.676;2023-05-07T15:10:09;1.80;;;1.70;;
1649;SDS011;822;53.670;8.676;2023-05-07T15:12:36;2.53;;;2.33;;
1649;SDS011;822;53.670;8.676;2023-05-07T15:15:04;1.90;;;1.80;;
1649;SDS011;822;53.670;8.676;2023-05-07T15:17:32;1.97;;;1.83;;
1649;SDS011;822;53.670;8.676;2023-05-07T15:19:59;2.47;;;2.27;;
1649;SDS011;822;53.670;8.676;2023-05-07T15:22:29;1.83;;;1.73;;
1649;SDS011;822;53.670;8.676;2023-05-07T15:24:57;2.30;;;2.10;;
1649;SDS011;822;53.670;8.676;2023-05-07T15:27:25;2.90;;;2.80;;
1649;SDS011;822;53.670;8.676;2023-05-07T15:29:52;1.90;;;1.80;;
1649;SDS011;822;53.670;8.676;2023-05-07T15:32:19;2.60;;;2.40;;
1649;SDS011;822;53.670;8.676;2023-05-07T15:34:46;2.50;;;2.10;;
1649;SDS011;822;53.670;8.676;2023-05-07T15:37:14;2.97;;;2.77;;
1649;SDS011;822;53.670;8.676;2023-05-07T15:39:41;2.00;;;1.90;;
1649;SDS011;822;53.670;8.676;2023-05-07T15:42:08;2.00;;;1.90;;
1649;SDS011;822;53.670;8.676;2023-05-07T15:44:36;2.43;;;2.30;;
1649;SDS011;822;53.670;8.676;2023-05-07T15:47:07;2.80;;;2.60;;
1649;SDS011;822;53.670;8.676;2023-05-07T15:49:34;2.90;;;2.70;;